createdAt,value
2018-07-22T00:01:09.676Z,61.74
2018-07-22T00:03:39.604Z,61.82
2018-07-22T00:06:09.600Z,62.33
2018-07-22T00:08:39.466Z,61.99
2018-07-22T00:11:09.367Z,62.80
2018-07-22T00:13:39.259Z,62.63
2018-07-22T00:16:09.103Z,62.57
2018-07-22T00:18:39.111Z,61.40
2018-07-22T00:21:08.896Z,63.12
2018-07-22T00:23:38.695Z,63.69
2018-07-22T00:26:08.576Z,63.81
2018-07-22T00:28:38.423Z,63.13
2018-07-22T00:31:08.589Z,63.09
2018-07-22T00:33:38.447Z,63.63
2018-07-22T00:36:08.376Z,62.79
2018-07-22T00:38:38.172Z,62.34
2018-07-22T00:41:08.797Z,62.30
2018-07-22T00:43:38.658Z,62.36
2018-07-22T00:48:37.178Z,63.18
2018-07-22T00:51:07.362Z,62.28
2018-07-22T00:53:37.277Z,63.07
2018-07-22T00:56:07.275Z,63.32
2018-07-22T00:58:37.192Z,63.66
2018-07-22T01:01:07.172Z,63.20
2018-07-22T01:03:37.268Z,63.43
2018-07-22T01:06:07.284Z,63.85
2018-07-22T01:08:37.228Z,64.35
2018-07-22T01:11:07.358Z,64.10
2018-07-22T01:13:37.500Z,63.75
2018-07-22T01:16:07.484Z,62.64
2018-07-22T01:18:37.455Z,62.79
2018-07-22T01:21:07.613Z,63.19
2018-07-22T01:23:37.647Z,63.00
2018-07-22T01:26:07.539Z,64.34
2018-07-22T01:28:37.505Z,63.51
2018-07-22T01:31:07.406Z,64.11
2018-07-22T01:33:37.416Z,64.08
2018-07-22T01:36:07.344Z,64.47
2018-07-22T01:38:37.304Z,64.60
2018-07-22T01:41:07.365Z,64.62
2018-07-22T01:43:37.296Z,64.02
2018-07-22T01:46:07.197Z,63.55
2018-07-22T01:48:37.159Z,63.86
2018-07-22T01:51:07.076Z,64.09
2018-07-22T01:53:37.066Z,65.28
2018-07-22T01:56:09.909Z,66.58
2018-07-22T01:58:39.789Z,66.78
2018-07-22T02:01:09.691Z,65.93
2018-07-22T02:03:39.671Z,65.37
2018-07-22T02:06:09.644Z,65.30
2018-07-22T02:08:39.590Z,64.63
2018-07-22T02:11:09.531Z,65.28
2018-07-22T02:13:39.427Z,64.87
2018-07-22T02:16:09.343Z,65.27
2018-07-22T02:18:39.203Z,64.41
2018-07-22T02:21:09.147Z,65.02
2018-07-22T02:23:38.924Z,65.84
2018-07-22T02:26:08.981Z,65.53
2018-07-22T02:28:38.779Z,65.82
2018-07-22T02:31:09.495Z,66.16
2018-07-22T02:33:39.564Z,66.46
2018-07-22T02:36:09.463Z,65.99
2018-07-22T02:38:39.276Z,66.20
2018-07-22T02:41:09.196Z,66.52
2018-07-22T02:43:39.160Z,65.92
2018-07-22T02:46:08.996Z,65.83
2018-07-22T02:48:39.037Z,65.97
2018-07-22T02:51:08.999Z,66.06
2018-07-22T02:53:38.982Z,65.13
2018-07-22T02:56:08.910Z,66.50
2018-07-22T02:58:38.876Z,65.43
2018-07-22T03:01:08.696Z,65.99
2018-07-22T03:03:38.593Z,65.92
2018-07-22T03:06:08.510Z,65.64
2018-07-22T03:08:38.431Z,66.58
2018-07-22T03:11:08.420Z,66.79
2018-07-22T03:13:38.324Z,66.55
2018-07-22T03:16:08.647Z,66.24
2018-07-22T03:18:38.572Z,66.62
2018-07-22T03:21:08.478Z,66.47
2018-07-22T03:23:38.562Z,66.39
2018-07-22T03:26:08.351Z,66.75
2018-07-22T03:28:38.240Z,66.78
2018-07-22T03:31:08.146Z,66.30
2018-07-22T03:33:38.104Z,65.59
2018-07-22T03:36:07.950Z,65.88
2018-07-22T03:38:37.896Z,66.25
2018-07-22T03:41:07.731Z,66.12
2018-07-22T03:43:37.667Z,65.73
2018-07-22T03:46:07.786Z,65.17
2018-07-22T03:48:37.631Z,65.73
2018-07-22T03:51:07.743Z,65.21
2018-07-22T03:53:37.662Z,65.35
2018-07-22T03:56:07.511Z,65.66
2018-07-22T03:58:37.527Z,65.29
2018-07-22T04:01:07.560Z,65.18
2018-07-22T04:03:37.483Z,66.08
2018-07-22T04:06:07.455Z,65.19
2018-07-22T04:08:37.239Z,65.83
2018-07-22T04:11:13.516Z,66.76
2018-07-22T04:13:43.498Z,66.57
2018-07-22T04:16:13.342Z,65.95
2018-07-22T04:18:52.899Z,65.81
2018-07-22T04:21:24.178Z,65.49
2018-07-22T04:23:54.064Z,65.65
2018-07-22T04:26:24.028Z,64.54
2018-07-22T04:28:53.939Z,65.17
2018-07-22T04:31:23.880Z,64.22
2018-07-22T04:33:53.850Z,64.44
2018-07-22T04:36:23.751Z,64.47
2018-07-22T04:38:53.553Z,62.92
2018-07-22T04:41:23.422Z,62.73
2018-07-22T04:43:53.428Z,60.80
2018-07-22T04:46:23.515Z,60.64
2018-07-22T04:48:53.481Z,60.52
2018-07-22T04:51:23.425Z,61.83
2018-07-22T04:53:53.936Z,62.20
2018-07-22T04:56:23.973Z,61.88
2018-07-22T04:58:53.964Z,62.00
2018-07-22T05:01:23.849Z,61.77
2018-07-22T05:03:53.789Z,61.44
2018-07-22T05:06:23.635Z,61.71
2018-07-22T05:08:53.656Z,61.69
2018-07-22T05:11:23.627Z,61.84
2018-07-22T05:13:53.564Z,61.89
2018-07-22T05:16:23.512Z,62.36
2018-07-22T05:18:53.668Z,62.29
2018-07-22T05:21:29.905Z,62.65
2018-07-22T05:23:59.764Z,61.95
2018-07-22T05:26:29.700Z,62.45
2018-07-22T05:28:59.575Z,61.44
2018-07-22T05:31:29.741Z,60.85
2018-07-22T05:33:59.668Z,60.50
2018-07-22T05:36:29.594Z,58.97
2018-07-22T05:38:59.468Z,57.99
2018-07-22T05:41:29.355Z,56.82
2018-07-22T05:43:59.207Z,55.09
2018-07-22T05:46:29.130Z,54.73
2018-07-22T05:48:59.105Z,55.05
2018-07-22T05:51:29.069Z,54.78
2018-07-22T05:53:58.940Z,54.99
2018-07-22T05:56:28.820Z,53.16
2018-07-22T05:58:58.767Z,54.89
2018-07-22T06:01:28.702Z,53.88
2018-07-22T06:03:58.561Z,55.40
2018-07-22T06:06:28.471Z,54.20
2018-07-22T06:08:58.524Z,53.90
2018-07-22T06:11:28.488Z,53.83
2018-07-22T06:13:58.446Z,53.82
2018-07-22T06:16:28.632Z,54.77
2018-07-22T06:18:58.609Z,54.75
2018-07-22T06:21:28.940Z,54.27
2018-07-22T06:23:58.918Z,54.68
2018-07-22T06:26:28.793Z,54.75
2018-07-22T06:28:58.741Z,55.62
2018-07-22T06:31:28.820Z,55.18
2018-07-22T06:33:58.662Z,56.28
2018-07-22T06:36:28.574Z,56.35
2018-07-22T06:38:58.412Z,56.08
2018-07-22T06:41:28.308Z,55.59
2018-07-22T06:43:58.188Z,56.27
2018-07-22T06:46:28.045Z,55.61
2018-07-22T06:48:58.038Z,57.23
2018-07-22T06:51:27.979Z,57.25
2018-07-22T06:53:57.963Z,56.80
2018-07-22T06:56:27.763Z,56.79
2018-07-22T06:58:58.158Z,54.91
2018-07-22T07:01:28.087Z,54.93
2018-07-22T07:03:57.983Z,54.65
2018-07-22T07:06:27.884Z,54.70
2018-07-22T07:08:57.779Z,54.44
2018-07-22T07:11:27.776Z,53.64
2018-07-22T07:13:59.411Z,53.31
2018-07-22T07:16:29.331Z,53.29
2018-07-22T07:18:59.107Z,52.99
2018-07-22T07:21:29.056Z,53.10
2018-07-22T07:23:58.820Z,53.52
2018-07-22T07:26:28.685Z,52.82
2018-07-22T07:28:58.659Z,53.92
2018-07-22T07:31:29.195Z,54.10
2018-07-22T07:33:59.101Z,53.08
2018-07-22T07:36:29.051Z,52.73
2018-07-22T07:38:58.905Z,51.88
2018-07-22T07:41:28.922Z,53.26
2018-07-22T07:43:59.026Z,53.96
2018-07-22T07:46:28.863Z,52.84
2018-07-22T07:48:58.993Z,53.07
2018-07-22T07:51:29.014Z,51.56
2018-07-22T07:53:58.863Z,52.42
2018-07-22T07:56:28.995Z,52.00
2018-07-22T07:58:59.031Z,50.27
2018-07-22T08:01:29.347Z,51.69
2018-07-22T08:03:59.636Z,51.33
2018-07-22T08:06:29.809Z,51.79
2018-07-22T08:08:59.857Z,52.01
2018-07-22T08:11:29.800Z,52.06
2018-07-22T08:13:59.959Z,52.22
2018-07-22T08:16:29.804Z,52.37
2018-07-22T08:18:59.770Z,50.74
2018-07-22T08:21:29.764Z,50.74
2018-07-22T08:23:59.746Z,50.79
2018-07-22T08:26:29.674Z,51.52
2018-07-22T08:29:33.106Z,50.88
2018-07-22T08:32:04.263Z,49.58
2018-07-22T08:34:34.175Z,50.41
2018-07-22T08:37:04.105Z,49.87
2018-07-22T08:39:34.131Z,48.68
2018-07-22T08:42:04.117Z,47.86
2018-07-22T08:44:33.936Z,48.41
2018-07-22T08:47:03.842Z,49.05
2018-07-22T08:49:33.594Z,48.15
2018-07-22T08:52:03.352Z,47.46
2018-07-22T08:54:33.294Z,47.56
2018-07-22T08:57:03.251Z,48.00
2018-07-22T08:59:33.111Z,47.21
2018-07-22T09:02:02.998Z,47.59
2018-07-22T09:04:32.999Z,47.26
2018-07-22T09:07:02.873Z,48.17
2018-07-22T09:09:32.677Z,48.07
2018-07-22T09:12:02.529Z,45.63
2018-07-22T09:14:32.496Z,45.96
2018-07-22T09:17:02.382Z,46.96
2018-07-22T09:19:32.353Z,47.22
2018-07-22T09:22:02.241Z,44.92
2018-07-22T09:24:32.045Z,44.75
2018-07-22T09:27:08.583Z,45.53
2018-07-22T09:29:38.419Z,43.66
2018-07-22T09:32:08.553Z,44.23
2018-07-22T09:34:38.500Z,45.42
2018-07-22T09:37:08.421Z,44.63
2018-07-22T09:39:38.354Z,44.35
2018-07-22T09:42:08.465Z,43.87
2018-07-22T09:44:38.299Z,44.53
2018-07-22T09:47:08.139Z,43.95
2018-07-22T09:49:38.009Z,45.02
2018-07-22T09:52:07.918Z,44.35
2018-07-22T09:54:37.897Z,44.88
2018-07-22T09:57:07.760Z,45.39
2018-07-22T09:59:37.656Z,44.45
2018-07-22T10:02:07.556Z,44.81
2018-07-22T10:04:37.546Z,45.97
2018-07-22T10:07:08.202Z,44.66
2018-07-22T10:09:38.153Z,45.06
2018-07-22T10:12:08.232Z,45.41
2018-07-22T10:14:38.202Z,45.53
2018-07-22T10:17:08.031Z,45.70
2018-07-22T10:19:37.892Z,43.98
2018-07-22T10:22:07.751Z,44.38
2018-07-22T10:24:37.732Z,44.21
2018-07-22T10:27:07.671Z,42.57
2018-07-22T10:29:37.571Z,42.90
2018-07-22T10:32:07.937Z,43.74
2018-07-22T10:34:37.796Z,44.09
2018-07-22T10:37:07.547Z,43.80
2018-07-22T10:39:37.307Z,43.10
2018-07-22T10:42:07.188Z,42.00
2018-07-22T10:44:37.010Z,42.55
2018-07-22T10:47:06.820Z,43.20
2018-07-22T10:49:37.252Z,43.47
2018-07-22T10:52:07.087Z,42.32
2018-07-22T10:54:37.018Z,40.08
2018-07-22T10:57:07.008Z,41.27
2018-07-22T10:59:36.905Z,42.59
2018-07-22T11:02:06.789Z,41.21
2018-07-22T11:04:36.608Z,40.85
2018-07-22T11:07:06.548Z,40.87
2018-07-22T11:09:36.354Z,41.12
2018-07-22T11:12:06.224Z,42.22
2018-07-22T11:14:36.212Z,42.14
2018-07-22T11:17:06.283Z,41.03
2018-07-22T11:19:36.298Z,40.46
2018-07-22T11:22:06.185Z,41.13
2018-07-22T11:24:36.051Z,41.84
2018-07-22T11:27:06.038Z,39.58
2018-07-22T11:29:36.436Z,38.88
2018-07-22T11:32:06.436Z,40.31
2018-07-22T11:34:36.200Z,41.06
2018-07-22T11:37:06.032Z,40.93
2018-07-22T11:39:35.779Z,42.73
2018-07-22T11:42:05.664Z,43.94
2018-07-22T11:44:35.547Z,41.49
2018-07-22T11:47:05.496Z,39.36
2018-07-22T11:49:35.397Z,40.50
2018-07-22T11:52:05.229Z,39.53
2018-07-22T11:54:35.040Z,40.02
2018-07-22T11:57:05.006Z,39.12
2018-07-22T11:59:34.864Z,38.92
2018-07-22T12:02:05.082Z,39.65
2018-07-22T12:04:35.920Z,40.07
2018-07-22T12:07:05.864Z,38.82
2018-07-22T12:09:35.788Z,39.97
2018-07-22T12:12:05.862Z,37.55
2018-07-22T12:14:35.798Z,36.98
2018-07-22T12:17:06.324Z,38.53
2018-07-22T12:19:36.196Z,37.63
2018-07-22T12:22:06.055Z,37.61
2018-07-22T12:24:35.829Z,36.23
2018-07-22T12:27:05.909Z,36.51
2018-07-22T12:29:35.858Z,39.32
2018-07-22T12:32:05.789Z,39.88
2018-07-22T12:34:35.864Z,40.83
2018-07-22T12:37:05.720Z,41.19
2018-07-22T12:39:36.351Z,41.35
2018-07-22T12:42:06.681Z,43.07
2018-07-22T12:44:36.589Z,43.51
2018-07-22T12:47:07.343Z,45.39
2018-07-22T12:49:37.167Z,45.36
2018-07-22T12:52:07.010Z,45.46
2018-07-22T12:54:36.832Z,45.85
2018-07-22T12:57:06.880Z,44.74
2018-07-22T12:59:36.886Z,43.41
2018-07-22T13:02:06.886Z,43.42
2018-07-22T13:04:36.719Z,43.17
2018-07-22T13:07:07.065Z,43.75
2018-07-22T13:09:36.850Z,43.10
2018-07-22T13:12:06.788Z,46.21
2018-07-22T13:14:36.595Z,48.38
2018-07-22T13:17:06.427Z,53.46
2018-07-22T13:19:36.251Z,54.32
2018-07-22T13:22:06.059Z,50.45
2018-07-22T13:24:35.801Z,51.45
2018-07-22T13:27:05.760Z,54.63
2018-07-22T13:29:35.528Z,54.56
2018-07-22T13:32:05.467Z,53.90
2018-07-22T13:34:35.313Z,55.34
2018-07-22T13:37:05.102Z,53.87
2018-07-22T13:39:34.939Z,54.59
2018-07-22T13:42:04.734Z,55.29
2018-07-22T13:44:34.672Z,54.69
2018-07-22T13:47:04.475Z,55.36
2018-07-22T13:49:34.788Z,54.77
2018-07-22T13:52:04.555Z,56.21
2018-07-22T13:54:34.492Z,55.99
2018-07-22T13:57:04.405Z,56.83
2018-07-22T13:59:34.339Z,55.61
2018-07-22T14:02:04.256Z,55.53
2018-07-22T14:04:34.217Z,59.88
2018-07-22T14:07:04.278Z,58.94
2018-07-22T14:09:34.147Z,57.61
2018-07-22T14:12:04.221Z,56.77
2018-07-22T14:14:34.139Z,55.86
2018-07-22T14:17:04.068Z,55.92
2018-07-22T14:19:33.977Z,56.44
2018-07-22T14:22:04.019Z,56.47
2018-07-22T14:24:34.374Z,56.47
2018-07-22T14:27:04.175Z,55.09
2018-07-22T14:29:34.150Z,55.35
2018-07-22T14:32:04.077Z,53.64
2018-07-22T14:34:34.033Z,54.26
2018-07-22T14:37:03.871Z,54.21
2018-07-22T14:39:34.043Z,53.72
2018-07-22T14:42:04.107Z,54.26
2018-07-22T14:44:33.997Z,54.03
2018-07-22T14:47:04.022Z,55.87
2018-07-22T14:49:33.903Z,54.34
2018-07-22T14:52:03.755Z,53.89
2018-07-22T14:54:33.700Z,53.39
2018-07-22T14:57:03.523Z,53.11
2018-07-22T14:59:33.502Z,53.65
2018-07-22T15:02:03.300Z,52.38
2018-07-22T15:04:33.251Z,52.87
2018-07-22T15:07:03.158Z,52.81
2018-07-22T15:09:33.019Z,53.38
2018-07-22T15:12:02.994Z,53.52
2018-07-22T15:14:32.911Z,54.20
2018-07-22T15:17:02.775Z,53.89
2018-07-22T15:19:32.648Z,53.13
2018-07-22T15:22:02.676Z,53.95
2018-07-22T15:24:32.712Z,53.85
2018-07-22T15:27:02.736Z,53.40
2018-07-22T15:29:32.691Z,53.83
2018-07-22T15:32:02.459Z,53.76
2018-07-22T15:34:32.251Z,53.86
2018-07-22T15:37:02.079Z,53.42
2018-07-22T15:39:32.220Z,51.31
2018-07-22T15:42:01.987Z,51.33
2018-07-22T15:44:31.840Z,51.96
2018-07-22T15:47:01.751Z,52.14
2018-07-22T15:49:31.711Z,51.69
2018-07-22T15:52:01.720Z,51.44
2018-07-22T15:54:31.674Z,49.97
2018-07-22T15:57:01.708Z,51.89
2018-07-22T15:59:31.570Z,61.05
2018-07-22T16:02:01.515Z,64.84
2018-07-22T16:04:31.693Z,64.55
2018-07-22T16:07:01.587Z,62.84
2018-07-22T16:09:31.416Z,60.29
2018-07-22T16:12:01.157Z,58.47
2018-07-22T16:14:30.987Z,56.92
2018-07-22T16:17:00.970Z,51.92
2018-07-22T16:19:30.756Z,55.13
2018-07-22T16:22:00.634Z,54.32
2018-07-22T16:24:30.429Z,53.04
2018-07-22T16:27:00.224Z,54.32
2018-07-22T16:29:29.995Z,52.95
2018-07-22T16:31:59.811Z,51.57
2018-07-22T16:34:29.718Z,52.61
2018-07-22T16:36:59.511Z,49.77
2018-07-22T16:39:29.339Z,50.46
2018-07-22T16:41:59.317Z,49.16
2018-07-22T16:44:29.240Z,49.79
2018-07-22T16:46:59.884Z,52.99
2018-07-22T16:49:29.884Z,52.29
2018-07-22T16:51:59.851Z,53.65
2018-07-22T16:54:29.756Z,53.31
2018-07-22T16:56:59.656Z,54.61
2018-07-22T16:59:29.637Z,52.34
2018-07-22T17:01:59.521Z,52.45
2018-07-22T17:04:29.376Z,55.61
2018-07-22T17:06:59.219Z,54.45
2018-07-22T17:09:29.079Z,54.18
2018-07-22T17:11:58.885Z,54.38
2018-07-22T17:14:28.882Z,54.02
2018-07-22T17:16:58.774Z,54.01
2018-07-22T17:19:28.585Z,53.44
2018-07-22T17:21:58.399Z,54.15
2018-07-22T17:24:28.334Z,53.49
2018-07-22T17:26:58.144Z,53.34
2018-07-22T17:29:27.931Z,52.95
2018-07-22T17:31:57.687Z,54.50
2018-07-22T17:34:27.484Z,53.86
2018-07-22T17:36:57.346Z,51.02
2018-07-22T17:39:27.253Z,54.10
2018-07-22T17:41:57.364Z,53.96
2018-07-22T17:44:27.203Z,52.43
2018-07-22T17:46:57.032Z,52.18
2018-07-22T17:49:26.937Z,52.81
2018-07-22T17:51:56.715Z,52.66
2018-07-22T17:54:26.499Z,52.09
2018-07-22T17:56:56.449Z,52.92
2018-07-22T17:59:26.542Z,52.52
2018-07-22T18:01:56.411Z,52.59
2018-07-22T18:04:26.240Z,53.60
2018-07-22T18:06:56.076Z,52.91
2018-07-22T18:09:25.927Z,53.26
2018-07-22T18:11:55.812Z,53.80
2018-07-22T18:14:32.234Z,53.19
2018-07-22T18:17:02.231Z,53.65
2018-07-22T18:19:32.103Z,54.16
2018-07-22T18:22:01.909Z,54.17
2018-07-22T18:24:31.868Z,54.87
2018-07-22T18:27:01.648Z,54.26
2018-07-22T18:29:31.522Z,54.43
2018-07-22T18:32:01.438Z,55.48
2018-07-22T18:34:31.379Z,54.72
2018-07-22T18:37:01.293Z,55.19
2018-07-22T18:39:31.227Z,55.97
2018-07-22T18:42:01.245Z,55.59
2018-07-22T18:44:31.178Z,56.61
2018-07-22T18:47:01.036Z,56.66
2018-07-22T18:49:30.873Z,56.28
2018-07-22T18:52:00.735Z,57.48
2018-07-22T18:54:30.687Z,59.09
2018-07-22T18:57:00.472Z,58.52
2018-07-22T18:59:30.232Z,59.08
2018-07-22T19:02:00.076Z,57.00
2018-07-22T19:04:29.896Z,56.52
2018-07-22T19:06:59.695Z,56.39
2018-07-22T19:09:29.717Z,57.46
2018-07-22T19:11:59.582Z,56.54
2018-07-22T19:14:29.411Z,57.93
2018-07-22T19:16:59.289Z,57.06
2018-07-22T19:19:29.086Z,57.23
2018-07-22T19:21:58.912Z,57.61
2018-07-22T19:24:28.814Z,57.41
2018-07-22T19:26:58.698Z,57.27
2018-07-22T19:29:28.660Z,57.45
2018-07-22T19:31:58.524Z,57.46
2018-07-22T19:34:28.423Z,58.40
2018-07-22T19:36:58.377Z,58.45
2018-07-22T19:39:28.161Z,57.38
2018-07-22T19:41:58.039Z,57.52
2018-07-22T19:44:27.903Z,58.37
2018-07-22T19:46:57.823Z,57.51
2018-07-22T19:49:27.870Z,57.50
2018-07-22T19:51:57.739Z,58.33
2018-07-22T19:54:27.684Z,58.64
2018-07-22T19:56:59.242Z,58.19
2018-07-22T19:59:29.223Z,58.81
2018-07-22T20:01:59.263Z,58.14
2018-07-22T20:04:29.156Z,58.17
2018-07-22T20:06:59.077Z,58.91
2018-07-22T20:09:29.038Z,58.57
2018-07-22T20:11:58.975Z,60.38
2018-07-22T20:14:28.818Z,60.71
2018-07-22T20:16:58.607Z,61.52
2018-07-22T20:19:28.466Z,61.58
2018-07-22T20:21:58.332Z,61.05
2018-07-22T20:24:28.305Z,61.06
2018-07-22T20:26:58.041Z,60.10
2018-07-22T20:29:28.002Z,61.32
2018-07-22T20:31:57.995Z,61.19
2018-07-22T20:34:27.894Z,60.76
2018-07-22T20:36:57.878Z,61.49
2018-07-22T20:39:27.812Z,60.53
2018-07-22T20:41:57.776Z,62.11
2018-07-22T20:44:27.667Z,61.61
2018-07-22T20:46:57.475Z,61.42
2018-07-22T20:49:27.325Z,61.19
2018-07-22T20:51:57.236Z,61.45
2018-07-22T20:54:27.212Z,61.77
2018-07-22T20:56:57.152Z,61.66
2018-07-22T20:59:27.053Z,61.24
2018-07-22T21:01:56.939Z,60.96
2018-07-22T21:04:27.725Z,60.26
2018-07-22T21:06:57.566Z,60.81
2018-07-22T21:09:27.469Z,59.72
2018-07-22T21:13:06.936Z,60.03
2018-07-22T21:15:36.951Z,59.28
2018-07-22T21:18:06.912Z,58.76
2018-07-22T21:20:36.838Z,58.48
2018-07-22T21:23:07.143Z,58.84
2018-07-22T21:25:37.106Z,57.39
2018-07-22T21:28:07.071Z,57.23
2018-07-22T21:30:36.934Z,57.23
2018-07-22T21:33:06.765Z,57.99
2018-07-22T21:35:36.631Z,57.77
2018-07-22T21:38:06.519Z,57.47
2018-07-22T21:40:36.360Z,59.17
2018-07-22T21:43:06.195Z,60.39
2018-07-22T21:45:36.067Z,62.06
2018-07-22T21:48:06.119Z,61.86
2018-07-22T21:50:36.127Z,60.32
2018-07-22T21:53:05.991Z,59.59
2018-07-22T21:55:35.975Z,58.86
2018-07-22T21:58:05.828Z,57.63
2018-07-22T22:00:40.864Z,57.67
2018-07-22T22:03:10.732Z,57.32
2018-07-22T22:05:40.816Z,57.64
2018-07-22T22:08:10.717Z,57.50
2018-07-22T22:10:40.712Z,57.10
2018-07-22T22:13:10.519Z,56.23
2018-07-22T22:15:40.617Z,55.97
2018-07-22T22:18:10.480Z,56.62
2018-07-22T22:20:40.701Z,56.36
2018-07-22T22:23:10.571Z,56.09
2018-07-22T22:25:40.540Z,57.03
2018-07-22T22:28:10.495Z,57.29
2018-07-22T22:30:40.453Z,56.38
2018-07-22T22:33:10.360Z,58.64
2018-07-22T22:35:40.264Z,57.90
2018-07-22T22:38:10.089Z,58.79
2018-07-22T22:40:39.950Z,58.23
2018-07-22T22:43:09.955Z,58.69
2018-07-22T22:45:39.904Z,58.70
2018-07-22T22:48:09.831Z,57.68
2018-07-22T22:50:39.784Z,57.20
2018-07-22T22:53:09.604Z,59.47
2018-07-22T22:55:39.719Z,60.40
2018-07-22T22:58:20.162Z,59.53
2018-07-22T23:00:50.028Z,60.13
2018-07-22T23:03:19.955Z,58.96
2018-07-22T23:05:49.806Z,59.14
2018-07-22T23:08:19.767Z,58.50
2018-07-22T23:10:49.571Z,57.65
2018-07-22T23:13:19.363Z,58.63
2018-07-22T23:15:49.361Z,58.20
2018-07-22T23:18:19.170Z,61.31
2018-07-22T23:20:49.249Z,59.62
2018-07-22T23:23:20.279Z,59.15
2018-07-22T23:25:50.207Z,58.79
2018-07-22T23:28:20.093Z,58.84
2018-07-22T23:30:49.918Z,59.06
2018-07-22T23:33:19.734Z,58.68
2018-07-22T23:35:49.567Z,58.89
2018-07-22T23:38:19.338Z,58.98
2018-07-22T23:40:49.240Z,59.80
2018-07-22T23:43:19.128Z,60.51
2018-07-22T23:45:49.019Z,60.22
2018-07-22T23:48:18.963Z,60.08
2018-07-22T23:50:48.843Z,60.47
2018-07-22T23:53:18.695Z,60.16
2018-07-22T23:55:48.467Z,59.41
2018-07-22T23:58:18.436Z,58.88
